createdAt,value
2023-05-01T00:01:37.874Z,8.51
2023-05-01T00:04:05.633Z,8.50
2023-05-01T00:06:34.050Z,8.50
2023-05-01T00:09:01.886Z,8.51
2023-05-01T00:11:29.596Z,8.52
2023-05-01T00:13:57.193Z,8.52
2023-05-01T00:16:24.809Z,8.50
2023-05-01T00:18:52.838Z,8.55
2023-05-01T00:21:20.665Z,8.57
2023-05-01T00:23:48.219Z,8.56
2023-05-01T00:26:15.922Z,8.56
2023-05-01T00:28:47.505Z,8.59
2023-05-01T00:31:15.662Z,8.59
2023-05-01T00:33:43.490Z,8.62
2023-05-01T00:36:11.463Z,8.61
2023-05-01T00:38:39.102Z,8.62
2023-05-01T00:41:06.850Z,8.62
2023-05-01T00:43:34.319Z,8.68
2023-05-01T00:46:02.172Z,8.65
2023-05-01T00:48:29.872Z,8.69
2023-05-01T00:50:58.877Z,8.68
2023-05-01T00:53:28.386Z,8.71
2023-05-01T00:55:58.413Z,8.66
2023-05-01T00:58:26.016Z,8.68
2023-05-01T01:00:53.579Z,8.70
2023-05-01T01:03:21.699Z,8.72
2023-05-01T01:06:03.819Z,8.74
2023-05-01T01:08:42.202Z,8.73
2023-05-01T01:11:36.577Z,8.79
2023-05-01T01:14:15.734Z,8.72
2023-05-01T01:16:59.416Z,8.72
2023-05-01T01:19:56.274Z,8.80
2023-05-01T01:22:26.795Z,8.74
2023-05-01T01:25:08.656Z,8.77
2023-05-01T01:27:52.429Z,8.77
2023-05-01T01:30:41.036Z,8.78
2023-05-01T01:33:36.241Z,8.83
2023-05-01T01:36:11.943Z,8.72
2023-05-01T01:39:19.987Z,8.82
2023-05-01T01:41:51.366Z,8.69
2023-05-01T01:44:37.466Z,8.73
2023-05-01T01:47:11.023Z,8.66
2023-05-01T01:49:42.526Z,8.69
2023-05-01T01:52:14.550Z,8.69
2023-05-01T01:54:48.939Z,8.72
2023-05-01T01:57:18.746Z,8.68
2023-05-01T01:59:49.988Z,8.74
2023-05-01T02:02:21.074Z,8.71
2023-05-01T02:04:50.128Z,8.79
2023-05-01T02:07:20.394Z,8.75
2023-05-01T02:09:50.578Z,8.77
2023-05-01T02:12:19.938Z,8.80
2023-05-01T02:14:50.523Z,8.82
2023-05-01T02:17:21.014Z,8.83
2023-05-01T02:19:50.567Z,8.81
2023-05-01T02:22:20.728Z,8.79
2023-05-01T02:24:51.476Z,8.82
2023-05-01T02:27:27.720Z,8.82
2023-05-01T02:29:56.152Z,8.81
2023-05-01T02:32:25.286Z,8.84
2023-05-01T02:34:53.442Z,8.83
2023-05-01T02:37:21.450Z,8.81
2023-05-01T02:39:49.650Z,8.86
2023-05-01T02:42:20.429Z,8.89
2023-05-01T02:45:07.847Z,8.95
2023-05-01T02:47:39.473Z,8.86
2023-05-01T02:50:09.195Z,8.89
2023-05-01T02:52:37.695Z,8.79
2023-05-01T02:55:27.278Z,8.85
2023-05-01T02:57:59.098Z,8.89
2023-05-01T03:00:27.912Z,8.86
2023-05-01T03:02:55.593Z,8.91
2023-05-01T03:05:23.294Z,8.91
2023-05-01T03:07:51.364Z,8.96
2023-05-01T03:10:19.119Z,9.01
2023-05-01T03:12:48.056Z,9.04
2023-05-01T03:15:15.762Z,9.15
2023-05-01T03:17:43.492Z,9.21
2023-05-01T03:20:11.416Z,9.26
2023-05-01T03:22:40.288Z,9.34
2023-05-01T03:25:09.477Z,9.46
2023-05-01T03:27:38.601Z,9.47
2023-05-01T03:30:07.093Z,9.52
2023-05-01T03:32:38.910Z,9.49
2023-05-01T03:35:10.044Z,9.44
2023-05-01T03:37:38.213Z,9.52
2023-05-01T03:40:06.463Z,9.52
2023-05-01T03:42:52.751Z,9.52
2023-05-01T03:45:24.661Z,9.51
2023-05-01T03:47:53.212Z,9.55
2023-05-01T03:50:20.857Z,9.56
2023-05-01T03:52:51.246Z,9.59
2023-05-01T03:55:19.025Z,9.65
2023-05-01T03:57:48.312Z,9.72
2023-05-01T04:00:16.870Z,9.74
2023-05-01T04:02:46.239Z,9.78
2023-05-01T04:05:19.208Z,9.84
2023-05-01T04:07:51.507Z,9.90
2023-05-01T04:10:19.333Z,9.96
2023-05-01T04:13:00.860Z,10.07
2023-05-01T04:15:29.183Z,10.07
2023-05-01T04:17:57.398Z,10.10
2023-05-01T04:20:25.213Z,10.15
2023-05-01T04:22:52.852Z,10.12
2023-05-01T04:25:20.982Z,10.10
2023-05-01T04:27:51.441Z,10.02
2023-05-01T04:30:19.088Z,10.05
2023-05-01T04:32:46.831Z,9.99
2023-05-01T04:35:14.601Z,9.96
2023-05-01T04:37:44.695Z,9.97
2023-05-01T04:40:12.663Z,9.90
2023-05-01T04:42:41.167Z,9.94
2023-05-01T04:45:12.488Z,9.93
2023-05-01T04:47:41.011Z,9.93
2023-05-01T04:50:09.098Z,9.91
2023-05-01T04:52:36.610Z,9.91
2023-05-01T04:55:06.945Z,9.92
2023-05-01T04:57:38.343Z,9.92
2023-05-01T05:00:08.660Z,9.88
2023-05-01T05:02:46.755Z,9.87
2023-05-01T05:05:16.052Z,9.93
2023-05-01T05:07:43.728Z,9.90
2023-05-01T05:10:26.504Z,9.92
2023-05-01T05:13:14.228Z,10.20
2023-05-01T05:15:41.818Z,10.01
2023-05-01T05:18:11.238Z,9.98
2023-05-01T05:20:40.138Z,10.00
2023-05-01T05:23:08.604Z,9.95
2023-05-01T05:25:36.638Z,9.95
2023-05-01T05:28:04.703Z,10.02
2023-05-01T05:30:32.463Z,10.02
2023-05-01T05:33:00.337Z,10.09
2023-05-01T05:35:28.141Z,10.12
2023-05-01T05:37:55.753Z,10.20
2023-05-01T05:40:27.692Z,10.22
2023-05-01T05:42:57.792Z,10.25
2023-05-01T05:45:27.517Z,10.29
2023-05-01T05:47:55.453Z,10.29
2023-05-01T05:50:23.666Z,10.37
2023-05-01T05:52:51.668Z,10.37
2023-05-01T05:55:19.511Z,10.42
2023-05-01T05:58:00.238Z,10.46
2023-05-01T06:00:28.189Z,10.49
2023-05-01T06:02:57.208Z,10.57
2023-05-01T06:05:27.868Z,10.60
2023-05-01T06:07:55.546Z,10.65
2023-05-01T06:10:23.031Z,10.63
2023-05-01T06:13:00.569Z,10.69
2023-05-01T06:15:39.073Z,10.75
2023-05-01T06:18:08.002Z,10.83
2023-05-01T06:20:36.174Z,10.87
2023-05-01T06:23:03.732Z,10.93
2023-05-01T06:25:54.007Z,10.97
2023-05-01T06:28:21.733Z,11.00
2023-05-01T06:30:49.214Z,11.04
2023-05-01T06:33:19.001Z,11.11
2023-05-01T06:35:54.795Z,11.21
2023-05-01T06:38:22.888Z,11.24
2023-05-01T06:40:51.888Z,11.34
2023-05-01T06:43:19.977Z,11.40
2023-05-01T06:45:47.657Z,11.47
2023-05-01T06:48:15.318Z,11.55
2023-05-01T06:50:42.983Z,11.72
2023-05-01T06:53:10.639Z,11.84
2023-05-01T06:55:38.217Z,11.90
2023-05-01T06:58:12.562Z,11.95
2023-05-01T07:00:50.909Z,12.06
2023-05-01T07:03:18.503Z,12.20
2023-05-01T07:05:46.380Z,12.28
2023-05-01T07:08:14.477Z,12.41
2023-05-01T07:10:42.576Z,12.45
2023-05-01T07:13:10.294Z,12.60
2023-05-01T07:15:38.369Z,12.68
2023-05-01T07:18:06.206Z,12.79
2023-05-01T07:20:37.261Z,12.86
2023-05-01T07:23:07.286Z,12.98
2023-05-01T07:25:37.784Z,13.07
2023-05-01T07:28:05.635Z,13.14
2023-05-01T07:30:33.554Z,13.22
2023-05-01T07:33:01.206Z,13.29
2023-05-01T07:35:29.220Z,13.49
2023-05-01T07:37:56.761Z,13.68
2023-05-01T07:40:24.463Z,13.90
2023-05-01T07:42:54.452Z,14.21
2023-05-01T07:45:22.559Z,14.57
2023-05-01T07:47:50.292Z,14.90
2023-05-01T07:50:18.108Z,15.17
2023-05-01T07:52:46.638Z,15.37
2023-05-01T07:55:14.521Z,15.62
2023-05-01T07:57:42.065Z,15.74
2023-05-01T08:00:10.119Z,15.78
2023-05-01T08:02:44.909Z,15.76
2023-05-01T08:05:12.620Z,15.71
2023-05-01T08:07:40.089Z,15.61
2023-05-01T08:10:08.656Z,15.42
2023-05-01T08:12:37.077Z,15.23
2023-05-01T08:15:05.397Z,14.95
2023-05-01T08:17:33.454Z,14.80
2023-05-01T08:20:00.966Z,14.63
2023-05-01T08:22:29.120Z,14.54
2023-05-01T08:24:56.705Z,14.53
2023-05-01T08:27:24.228Z,14.42
2023-05-01T08:29:51.875Z,14.39
2023-05-01T08:32:19.579Z,14.31
2023-05-01T08:34:47.224Z,14.21
2023-05-01T08:37:14.786Z,14.10
2023-05-01T08:39:42.369Z,13.94
2023-05-01T08:42:10.388Z,13.73
2023-05-01T08:44:39.835Z,13.59
2023-05-01T08:47:18.023Z,13.59
2023-05-01T08:49:47.407Z,13.50
2023-05-01T08:52:15.586Z,13.47
2023-05-01T08:54:44.874Z,13.46
2023-05-01T08:57:14.385Z,13.51
2023-05-01T08:59:41.957Z,13.59
2023-05-01T09:02:10.642Z,13.67
2023-05-01T09:04:40.829Z,13.79
2023-05-01T09:07:10.243Z,13.84
2023-05-01T09:09:37.958Z,13.92
2023-05-01T09:12:25.372Z,14.12
2023-05-01T09:14:55.379Z,14.31
2023-05-01T09:17:24.172Z,14.43
2023-05-01T09:19:52.850Z,14.56
2023-05-01T09:22:21.391Z,14.71
2023-05-01T09:24:49.476Z,14.72
2023-05-01T09:27:17.165Z,14.73
2023-05-01T09:29:49.095Z,14.64
2023-05-01T09:32:21.135Z,14.69
2023-05-01T09:34:49.749Z,14.82
2023-05-01T09:37:29.644Z,15.17
2023-05-01T09:40:14.663Z,15.54
2023-05-01T09:42:53.204Z,15.79
2023-05-01T09:45:20.936Z,15.76
2023-05-01T09:47:48.850Z,15.76
2023-05-01T09:50:31.368Z,15.60
2023-05-01T09:53:02.807Z,14.98
2023-05-01T09:55:30.924Z,14.74
2023-05-01T09:58:01.187Z,14.54
2023-05-01T10:00:30.266Z,14.32
2023-05-01T10:02:58.207Z,14.15
2023-05-01T10:05:26.377Z,14.12
2023-05-01T10:08:00.348Z,14.08
2023-05-01T10:10:28.399Z,14.07
2023-05-01T10:12:56.244Z,13.97
2023-05-01T10:15:36.064Z,13.79
2023-05-01T10:18:05.222Z,13.62
2023-05-01T10:20:32.808Z,13.43
2023-05-01T10:23:03.381Z,13.30
2023-05-01T10:25:32.843Z,13.07
2023-05-01T10:28:04.539Z,12.94
2023-05-01T10:30:33.129Z,12.75
2023-05-01T10:33:01.048Z,12.51
2023-05-01T10:35:33.511Z,12.35
2023-05-01T10:38:16.070Z,12.24
2023-05-01T10:40:44.955Z,12.01
2023-05-01T10:43:21.293Z,12.06
2023-05-01T10:45:49.456Z,11.93
2023-05-01T10:48:39.403Z,12.05
2023-05-01T10:51:15.656Z,11.82
2023-05-01T10:53:44.906Z,11.71
2023-05-01T10:56:21.532Z,11.70
2023-05-01T10:58:58.328Z,11.57
2023-05-01T11:01:30.878Z,11.36
2023-05-01T11:04:09.548Z,11.28
2023-05-01T11:06:40.201Z,11.09
2023-05-01T11:09:46.616Z,11.09
2023-05-01T11:12:15.735Z,10.90
2023-05-01T11:15:03.658Z,10.84
2023-05-01T11:17:41.734Z,10.69
2023-05-01T11:20:33.626Z,10.55
2023-05-01T11:23:01.347Z,10.34
2023-05-01T11:25:31.154Z,10.23
2023-05-01T11:28:01.961Z,10.07
2023-05-01T11:30:42.327Z,9.98
2023-05-01T11:33:11.175Z,9.85
2023-05-01T11:35:39.525Z,9.73
2023-05-01T11:38:18.752Z,9.69
2023-05-01T11:40:54.949Z,9.57
2023-05-01T11:43:23.470Z,9.44
2023-05-01T11:46:01.965Z,9.42
2023-05-01T11:48:30.836Z,9.44
2023-05-01T11:50:58.438Z,9.40
2023-05-01T11:53:26.165Z,9.38
2023-05-01T11:55:53.846Z,9.37
2023-05-01T11:58:34.612Z,9.37
2023-05-01T12:01:03.355Z,9.28
2023-05-01T12:03:41.619Z,9.30
2023-05-01T12:06:11.515Z,9.28
2023-05-01T12:08:48.712Z,9.29
2023-05-01T12:11:16.411Z,9.13
2023-05-01T12:13:44.565Z,9.04
2023-05-01T12:16:12.366Z,8.99
2023-05-01T12:18:40.011Z,9.01
2023-05-01T12:21:16.110Z,9.01
2023-05-01T12:23:43.895Z,9.00
2023-05-01T12:26:27.408Z,9.04
2023-05-01T12:29:03.133Z,9.04
2023-05-01T12:31:31.643Z,9.03
2023-05-01T12:34:03.584Z,8.96
2023-05-01T12:36:33.599Z,8.92
2023-05-01T12:39:09.265Z,8.84
2023-05-01T12:41:39.870Z,8.72
2023-05-01T12:44:26.665Z,8.78
2023-05-01T12:47:02.872Z,8.72
2023-05-01T12:49:32.502Z,8.65
2023-05-01T12:52:01.425Z,8.59
2023-05-01T12:54:30.261Z,8.56
2023-05-01T12:57:08.133Z,8.59
2023-05-01T12:59:37.861Z,8.53
2023-05-01T13:02:07.867Z,8.51
2023-05-01T13:04:37.665Z,8.59
2023-05-01T13:07:11.886Z,8.70
2023-05-01T13:09:39.711Z,8.69
2023-05-01T13:12:09.025Z,8.62
2023-05-01T13:14:39.131Z,8.63
2023-05-01T13:17:11.776Z,8.68
2023-05-01T13:19:39.706Z,8.71
2023-05-01T13:22:07.674Z,8.71
2023-05-01T13:24:40.087Z,8.80
2023-05-01T13:27:12.606Z,8.88
2023-05-01T13:29:41.976Z,8.94
2023-05-01T13:32:11.814Z,9.03
2023-05-01T13:34:43.078Z,9.06
2023-05-01T13:37:14.157Z,9.15
2023-05-01T13:39:43.207Z,9.31
2023-05-01T13:42:23.263Z,9.47
2023-05-01T13:44:56.618Z,9.50
2023-05-01T13:47:29.093Z,9.57
2023-05-01T13:49:57.636Z,9.62
2023-05-01T13:52:25.676Z,9.66
2023-05-01T13:54:56.382Z,9.73
2023-05-01T13:57:24.095Z,9.82
2023-05-01T13:59:51.773Z,9.91
2023-05-01T14:02:28.925Z,10.04
2023-05-01T14:04:59.318Z,10.02
2023-05-01T14:07:31.146Z,10.03
2023-05-01T14:10:02.580Z,10.01
2023-05-01T14:12:32.366Z,10.03
2023-05-01T14:15:01.940Z,10.02
2023-05-01T14:17:36.044Z,10.16
2023-05-01T14:20:08.705Z,10.25
2023-05-01T14:22:45.169Z,10.33
2023-05-01T14:25:27.278Z,10.35
2023-05-01T14:27:56.656Z,10.21
2023-05-01T14:30:34.878Z,10.16
2023-05-01T14:33:03.894Z,10.13
2023-05-01T14:35:31.787Z,10.16
2023-05-01T14:38:11.410Z,10.21
2023-05-01T14:40:41.261Z,10.14
2023-05-01T14:43:13.241Z,10.13
2023-05-01T14:45:43.123Z,10.07
2023-05-01T14:48:25.592Z,10.00
2023-05-01T14:50:55.130Z,10.03
2023-05-01T14:53:23.466Z,10.04
2023-05-01T14:55:52.097Z,10.04
2023-05-01T14:58:20.040Z,10.01
2023-05-01T15:00:47.645Z,10.00
2023-05-01T15:03:15.443Z,10.01
2023-05-01T15:05:44.493Z,9.96
2023-05-01T15:08:12.091Z,10.00
2023-05-01T15:10:39.816Z,10.00
2023-05-01T15:13:07.554Z,9.99
2023-05-01T15:15:35.145Z,9.96
2023-05-01T15:18:04.115Z,9.92
2023-05-01T15:20:32.022Z,9.88
2023-05-01T15:22:59.711Z,9.84
2023-05-01T15:25:27.530Z,9.77
2023-05-01T15:27:55.772Z,9.76
2023-05-01T15:30:23.564Z,9.74
2023-05-01T15:32:51.888Z,9.69
2023-05-01T15:35:21.551Z,9.69
2023-05-01T15:37:49.685Z,9.70
2023-05-01T15:40:17.393Z,9.68
2023-05-01T15:42:45.772Z,9.69
2023-05-01T15:45:13.789Z,9.64
2023-05-01T15:47:41.499Z,9.56
2023-05-01T15:50:13.886Z,9.55
2023-05-01T15:52:41.608Z,9.46
2023-05-01T15:55:09.748Z,9.50
2023-05-01T15:57:37.485Z,9.45
2023-05-01T16:00:06.284Z,9.40
2023-05-01T16:02:35.177Z,9.41
2023-05-01T16:05:02.955Z,9.38
2023-05-01T16:07:33.174Z,9.39
2023-05-01T16:10:01.183Z,9.35
2023-05-01T16:12:31.744Z,9.38
2023-05-01T16:15:03.491Z,9.36
2023-05-01T16:17:45.366Z,9.37
2023-05-01T16:20:14.494Z,9.27
2023-05-01T16:22:43.685Z,9.27
2023-05-01T16:25:12.367Z,9.26
2023-05-01T16:27:42.602Z,9.22
2023-05-01T16:30:10.937Z,9.22
2023-05-01T16:32:40.052Z,9.22
2023-05-01T16:35:10.844Z,9.15
2023-05-01T16:37:39.661Z,9.13
2023-05-01T16:40:08.071Z,9.15
2023-05-01T16:42:36.433Z,9.13
2023-05-01T16:45:06.457Z,9.04
2023-05-01T16:47:36.006Z,9.07
2023-05-01T16:50:08.694Z,9.08
2023-05-01T16:52:36.441Z,9.05
2023-05-01T16:55:04.220Z,9.10
2023-05-01T16:57:32.527Z,9.07
2023-05-01T17:00:00.641Z,9.09
2023-05-01T17:02:28.759Z,9.03
2023-05-01T17:04:56.395Z,9.03
2023-05-01T17:07:24.177Z,9.00
2023-05-01T17:09:51.680Z,8.98
2023-05-01T17:12:19.477Z,8.97
2023-05-01T17:14:47.078Z,8.95
2023-05-01T17:17:15.568Z,8.91
2023-05-01T17:19:43.456Z,8.81
2023-05-01T17:22:11.262Z,8.80
2023-05-01T17:24:38.975Z,8.68
2023-05-01T17:27:06.797Z,8.66
2023-05-01T17:29:35.471Z,8.58
2023-05-01T17:32:04.063Z,8.57
2023-05-01T17:34:31.619Z,8.52
2023-05-01T17:36:59.213Z,8.45
2023-05-01T17:39:28.378Z,8.38
2023-05-01T17:41:56.185Z,8.29
2023-05-01T17:44:23.705Z,8.23
2023-05-01T17:46:51.402Z,8.19
2023-05-01T17:49:19.029Z,8.20
2023-05-01T17:51:47.120Z,8.20
2023-05-01T17:54:16.830Z,8.18
2023-05-01T17:56:45.081Z,8.17
2023-05-01T17:59:12.903Z,8.12
2023-05-01T18:01:40.845Z,8.12
2023-05-01T18:04:09.297Z,8.08
2023-05-01T18:06:37.428Z,8.02
2023-05-01T18:09:05.516Z,8.00
2023-05-01T18:11:33.306Z,8.00
2023-05-01T18:14:01.770Z,8.04
2023-05-01T18:16:29.604Z,8.08
2023-05-01T18:18:58.295Z,8.15
2023-05-01T18:21:27.779Z,8.18
2023-05-01T18:23:55.528Z,8.22
2023-05-01T18:26:26.309Z,8.23
2023-05-01T18:28:54.068Z,8.27
2023-05-01T18:31:21.713Z,8.29
2023-05-01T18:33:49.493Z,8.25
2023-05-01T18:36:17.181Z,8.34
2023-05-01T18:38:44.860Z,8.38
2023-05-01T18:41:12.420Z,8.37
2023-05-01T18:43:40.290Z,8.40
2023-05-01T18:46:07.978Z,8.30
2023-05-01T18:48:35.562Z,8.45
2023-05-01T18:51:08.897Z,8.45
2023-05-01T18:53:37.235Z,8.43
2023-05-01T18:56:06.226Z,8.47
2023-05-01T18:58:33.895Z,8.40
2023-05-01T19:01:01.556Z,8.43
2023-05-01T19:03:29.440Z,8.42
2023-05-01T19:05:57.082Z,8.39
2023-05-01T19:08:24.643Z,8.35
2023-05-01T19:10:52.980Z,8.35
2023-05-01T19:13:21.168Z,8.32
2023-05-01T19:15:49.050Z,8.27
2023-05-01T19:18:16.900Z,8.25
2023-05-01T19:20:45.964Z,8.17
2023-05-01T19:23:13.826Z,8.14
2023-05-01T19:25:41.326Z,8.08
2023-05-01T19:28:09.373Z,8.03
2023-05-01T19:30:37.059Z,7.99
2023-05-01T19:33:05.075Z,7.90
2023-05-01T19:35:32.813Z,7.86
2023-05-01T19:38:00.334Z,7.83
2023-05-01T19:40:28.246Z,7.77
2023-05-01T19:42:55.878Z,7.71
2023-05-01T19:45:23.525Z,7.63
2023-05-01T19:47:51.104Z,7.59
2023-05-01T19:50:21.917Z,7.60
2023-05-01T19:52:49.557Z,7.51
2023-05-01T19:55:17.343Z,7.46
2023-05-01T19:57:45.087Z,7.46
2023-05-01T20:00:13.836Z,7.40
2023-05-01T20:02:41.724Z,7.37
2023-05-01T20:05:10.171Z,7.30
2023-05-01T20:07:37.807Z,7.30
2023-05-01T20:10:07.011Z,7.24
2023-05-01T20:12:34.800Z,7.20
2023-05-01T20:15:02.341Z,7.18
2023-05-01T20:17:34.301Z,7.15
2023-05-01T20:20:03.174Z,7.10
2023-05-01T20:22:31.773Z,7.05
2023-05-01T20:24:59.438Z,7.04
2023-05-01T20:27:27.279Z,7.02
2023-05-01T20:29:55.070Z,6.96
2023-05-01T20:32:22.787Z,6.93
2023-05-01T20:34:50.458Z,6.90
2023-05-01T20:37:18.969Z,6.87
2023-05-01T20:39:46.810Z,6.82
2023-05-01T20:42:14.362Z,6.76
2023-05-01T20:44:41.973Z,6.76
2023-05-01T20:47:10.111Z,6.71
2023-05-01T20:49:37.821Z,6.66
2023-05-01T20:52:05.460Z,6.63
2023-05-01T20:54:33.080Z,6.59
2023-05-01T20:57:02.885Z,6.55
2023-05-01T20:59:31.034Z,6.51
2023-05-01T21:01:58.834Z,6.49
2023-05-01T21:04:26.538Z,6.46
2023-05-01T21:06:54.191Z,6.41
2023-05-01T21:09:21.743Z,6.37
2023-05-01T21:11:49.503Z,6.32
2023-05-01T21:14:17.008Z,6.29
2023-05-01T21:16:44.772Z,6.23
2023-05-01T21:19:15.230Z,6.21
2023-05-01T21:21:42.894Z,6.15
2023-05-01T21:24:19.299Z,6.15
2023-05-01T21:26:47.274Z,6.14
2023-05-01T21:29:14.879Z,6.13
2023-05-01T21:31:42.677Z,6.11
2023-05-01T21:34:10.587Z,6.09
2023-05-01T21:36:49.272Z,6.10
2023-05-01T21:39:17.240Z,6.04
2023-05-01T21:41:48.832Z,6.03
2023-05-01T21:44:16.741Z,5.96
2023-05-01T21:46:44.417Z,5.99
2023-05-01T21:49:12.689Z,5.98
2023-05-01T21:51:40.929Z,5.95
2023-05-01T21:54:08.759Z,5.91
2023-05-01T21:56:36.570Z,5.90
2023-05-01T21:59:05.848Z,5.84
2023-05-01T22:01:33.563Z,5.84
2023-05-01T22:04:01.368Z,5.84
2023-05-01T22:06:29.902Z,5.79
2023-05-01T22:08:57.506Z,5.79
2023-05-01T22:11:26.396Z,5.74
2023-05-01T22:13:54.032Z,5.73
2023-05-01T22:16:21.742Z,5.72
2023-05-01T22:18:50.673Z,5.69
2023-05-01T22:21:18.323Z,5.69
2023-05-01T22:23:45.994Z,5.66
2023-05-01T22:26:13.530Z,5.58
2023-05-01T22:28:41.216Z,5.56
2023-05-01T22:31:08.802Z,5.54
2023-05-01T22:33:37.042Z,5.55
2023-05-01T22:36:07.492Z,5.51
2023-05-01T22:38:36.547Z,5.48
2023-05-01T22:41:04.166Z,5.50
2023-05-01T22:43:31.969Z,5.45
2023-05-01T22:45:59.940Z,5.43
2023-05-01T22:48:27.574Z,5.43
2023-05-01T22:50:55.095Z,5.42
2023-05-01T22:53:22.689Z,5.42
2023-05-01T22:55:50.533Z,5.38
2023-05-01T22:58:18.807Z,5.38
2023-05-01T23:00:46.916Z,5.33
2023-05-01T23:03:15.707Z,5.34
2023-05-01T23:05:44.118Z,5.30
2023-05-01T23:08:11.743Z,5.25
2023-05-01T23:10:42.713Z,5.26
2023-05-01T23:13:22.808Z,5.28
2023-05-01T23:15:52.430Z,5.23
2023-05-01T23:18:31.772Z,5.21
2023-05-01T23:20:59.913Z,5.19
2023-05-01T23:23:30.757Z,5.17
2023-05-01T23:25:58.452Z,5.14
2023-05-01T23:28:27.568Z,5.14
2023-05-01T23:31:01.112Z,5.14
2023-05-01T23:33:34.874Z,5.11
2023-05-01T23:36:02.692Z,5.07
2023-05-01T23:38:30.516Z,5.03
2023-05-01T23:40:59.630Z,5.03
2023-05-01T23:43:27.175Z,5.01
2023-05-01T23:45:54.828Z,4.99
2023-05-01T23:48:22.410Z,4.89
2023-05-01T23:50:50.639Z,4.95
2023-05-01T23:53:18.517Z,4.92
2023-05-01T23:55:46.954Z,4.88
2023-05-01T23:58:14.883Z,4.86
